Historyczne dane pomiarowe

Dodano dane terminowe – wersja testowa.

Dane z okresu 1951-2019

Wersja bazy: 1.34 [2019-03-16, lista zmian], aktualizacja planowana na 2019-04-15

Dane meteo z obszaru Polski uzyskane na podstawie danych udostępnionych przez Instytut Meteorologii i Gospodarki Wodnej – Państwowy Instytut Badawczy.

 

Wybierz Datę:    

       

TemperaturaWilgotnośćWiatrCiśnienieOpadyŚniegCzas trwania zjawisk
 Stacja t tx tn tng RH VA  wxwx mslp ppp RRR   cm mm wxwxwxwxwxwxwx
1961-08-14 13.4 19.9 6.2 9.6 81.3- 3.7 2.3---- 0.7------------
1961-08-13 13.0 17.2 10.5 11.6 83.5- 4.7 3.7---- 0.1------------
1961-08-12 16.2 18.6 13.7 12.2 86.8- 7.7 2.3---- 0.5------------
1961-08-11 16.8 20.1 15.6 17.2 96.8- 5.3 2.0---- 7.8------------
1961-08-10 21.5 27.5 16.2 15.6 84.3- 4.3 3.0---- 4.7------------
1961-08-09 19.7 25.1 15.6 13.1 86.3- 6.0 1.0---- 4.3------------
1961-08-08 19.8 25.0 8.7 14.1 85.8- 4.3 2.0---- 0.0------------
1961-08-07 17.0 23.0 14.4 15.3 91.8- 5.7 1.7---- 2.7------------
1961-08-06 23.0 29.6 16.2 13.9 77.8- 2.7 3.7---- 6.4------------
1961-08-05 19.5 25.2 13.6 11.9 81.0- 4.0 2.3---- 0.0------------
1961-08-04 15.1 16.8 6.7 5.5 86.8- 7.0 5.3---- 0.5------------
1961-08-03 14.0 18.5 11.8 10.2 82.0- 4.7 2.0---- 0.5------------
1961-08-02 14.2 17.7 8.7 7.7 91.3- 4.7 1.3---- 2.1------------
1961-08-01 16.0 21.4 11.0 8.6 78.5- 3.0 2.7---- 0.0------------
1961-07-31 14.4 17.9 10.8 10.5 78.8- 7.3 4.7---- 0.0------------
1961-07-30 13.2 15.7 9.0 6.2 86.3- 7.3 2.7---- 16.9------------
1961-07-29 12.4 16.7 10.0 10.2 84.5- 5.3 2.3---- 0.0------------
1961-07-28 14.9 17.7 12.6 15.1 94.3- 7.7 2.7---- 15.0------------
1961-07-27 18.2 24.2 14.5 11.3 79.5- 7.0 4.3---- 5.0------------
1961-07-26 18.6 24.6 8.7 6.7 66.5- 3.0 3.7---- 0.0------------
1961-07-25 13.4 17.9 10.3 10.4 78.3- 5.0 2.0---- 0.0------------
1961-07-24 13.3 15.9 9.9 10.3 77.3- 7.7 2.7---- 0.0------------
1961-07-23 13.7 15.7 9.1 8.7 83.5- 7.7 3.3---- 0.3------------
1961-07-22 13.8 16.3 11.8 11.3 83.5- 6.0 2.0---- 0.0------------
1961-07-21 13.4 15.4 12.2 12.2 89.0- 7.7 3.7---- 2.6------------
1961-07-20 15.4 19.7 9.4 7.3 78.8- 6.3 2.3---- 2.4------------
1961-07-19 14.3 18.4 11.3 10.6 85.0- 6.3 2.0---- 2.6------------
1961-07-18 14.8 19.7 10.5 10.3 78.8- 7.3 3.0---- 0.0------------
1961-07-17 12.5 15.8 9.0 9.1 86.3- 7.7 3.0---- 2.3------------
1961-07-16 16.0 22.0 11.3 9.3 79.3- 5.3 2.3---- 1.2------------
1961-07-15 18.4 23.6 13.3 12.0 78.3- 5.3 2.7---- 0.0------------
1961-07-14 16.1 20.6 11.8 9.9 69.0- 6.7 3.7---- 1.6------------
1961-07-13 17.4 22.2 13.8 13.0 86.0- 6.0 3.3---- 5.6------------
1961-07-12 22.4 27.9 14.5 11.6 76.0- 2.7 2.7---- 0.0------------
1961-07-11 18.0 23.8 10.0 6.7 82.3- 6.7 2.7---- 1.4------------
1961-07-10 12.9 17.2 9.2 7.5 77.3- 5.7 3.0---- 0.9------------
1961-07-09 13.6 18.5 11.5 9.3 94.5- 7.0 4.7---- 4.9------------
1961-07-08 16.1 21.8 6.5 7.3 78.3- 4.7 1.7---- 5.2------------
1961-07-07 13.3 18.2 8.5 9.5 83.0- 5.7 1.7---- 0.0------------
1961-07-06 12.5 15.4 8.7 7.5 87.5- 6.7 3.3---- 0.2------------
1961-07-05 12.1 16.4 9.3 8.2 84.8- 6.3 3.3---- 1.0------------
1961-07-04 17.4 24.8 13.2 13.7 89.5- 6.0 2.0---- 2.5------------
1961-07-03 24.0 31.3 15.3 12.1 72.5- 3.3 3.0---- 0.0------------
1961-07-02 23.4 30.2 10.7 11.8 70.3- 0.0 1.7---- 0.0------------
1961-07-01 21.6 28.7 10.9 18.2 75.0- 0.0 1.0---- 0.0------------
1961-06-30 19.8 25.9 9.0 9.2 69.3- 0.0 1.7---- 0.0------------
1961-06-29 17.8 22.6 10.0 8.8 66.3- 0.3 1.7---- 0.0------------
1961-06-28 13.7 18.2 11.4 10.8 75.5- 4.7 3.3---- 0.0------------
1961-06-27 19.8 26.1 15.8 12.3 89.8- 6.3 3.3---- 8.4------------
1961-06-26 21.5 27.0 13.8 14.2 84.0- 6.0 2.0---- 0.0------------
1961-06-25 23.0 29.2 12.5 10.7 73.3- 1.7 2.0---- 0.0------------
1961-06-24 19.7 25.5 12.0 10.6 71.8- 3.0 2.7---- 0.0------------
1961-06-23 17.9 22.3 13.6 12.2 75.5- 3.3 2.7---- 0.0------------
1961-06-22 19.0 26.0 7.0 8.5 83.3- 4.3 1.3---- 0.9------------
1961-06-21 16.2 23.1 6.5 5.0 80.3- 3.0 2.7---- 0.0------------
1961-06-20 15.4 19.2 7.2 5.7 64.5- 2.7 1.0---- 0.0------------
1961-06-19 15.5 21.8 13.3 14.6 78.5- 4.0 4.0---- 1.6------------
1961-06-18 21.0 26.5 11.0 8.8 77.5- 0.3 2.3---- 0.8------------
1961-06-17 16.8 23.1 5.8 4.4 77.5- 3.3 1.7---- 0.0------------
1961-06-16 14.3 19.6 5.3 4.0 74.3- 3.0 1.3---- 0.0------------
258.6 ms

 

Źródłem pochodzenia danych jest Instytut Meteorologii i Gospodarki Wodnej – Państwowy Instytut Badawczy. Dane Instytutu Meteorologii i Gospodarki Wodnej – Państwowego Instytutu Badawczego zostały przetworzone.

Dane źródłowe można odnaleźć na stronie https://dane.imgw.pl